Time;durP1;ratioP1;P1;durP2;ratioP2;P2;SDS_P1;SDS_P2;PMS_P1;PMS_P2;Temp;Humidity;BMP_temperature;BMP_pressure;BME280_temperature;BME280_humidity;BME280_pressure;Samples;Min_cycle;Max_cycle;Signal;HPM_P1;HPM_P2
2023/05/30 00:01:58;;;;;;;;;;;;;;;30.28;29.18;96377.66;4961889;28;20067;-50
2023/05/30 00:04:26;;;;;;;;;;;;;;;30.51;28.77;96381.72;4955924;28;19964;-50
2023/05/30 00:06:55;;;;;;;;;;;;;;;30.30;28.62;96380.13;4961721;28;20391;-49
2023/05/30 00:09:23;;;;;;;;;;;;;;;30.39;28.96;96383.94;4955614;28;19976;-50
2023/05/30 00:11:56;;;;;;;;;;;;;;;30.44;28.87;96392.06;4956805;28;19965;-49
2023/05/30 00:14:26;;;;;;;;;;;;;;;30.23;28.91;96383.09;4959366;28;19985;-47
2023/05/30 00:16:56;;;;;;;;;;;;;;;30.36;28.78;96382.56;4961642;28;19958;-50
2023/05/30 00:19:24;;;;;;;;;;;;;;;30.20;28.73;96387.19;4960454;28;19988;-48
2023/05/30 00:21:52;;;;;;;;;;;;;;;30.32;28.93;96395.09;4957727;28;19954;-46
2023/05/30 00:24:20;;;;;;;;;;;;;;;30.42;29.61;96397.81;4956288;28;19960;-46
2023/05/30 00:26:48;;;;;;;;;;;;;;;30.30;29.40;96388.28;4956727;28;19961;-49
2023/05/30 00:29:17;;;;;;;;;;;;;;;30.16;29.63;96391.50;4957736;28;20363;-50
2023/05/30 00:31:46;;;;;;;;;;;;;;;30.61;29.03;96389.88;4957642;28;19953;-47
2023/05/30 00:34:14;;;;;;;;;;;;;;;30.50;28.89;96391.81;4953575;28;19961;-53
2023/05/30 00:36:42;;;;;;;;;;;;;;;30.13;29.86;96392.03;4963580;28;19976;-49
2023/05/30 00:39:10;;;;;;;;;;;;;;;29.95;30.29;96398.00;4954796;28;19981;-56
2023/05/30 00:41:38;;;;;;;;;;;;;;;29.97;30.11;96398.53;4960605;28;19968;-50
2023/05/30 00:44:06;;;;;;;;;;;;;;;30.24;29.52;96401.06;4967133;28;20379;-49
2023/05/30 00:46:35;;;;;;;;;;;;;;;30.10;31.13;96400.75;4960912;28;19999;-52
2023/05/30 00:49:03;;;;;;;;;;;;;;;30.23;30.31;96400.25;4961873;28;20929;-50
2023/05/30 00:51:31;;;;;;;;;;;;;;;29.88;29.98;96401.00;4963918;28;20346;-47
2023/05/30 00:54:00;;;;;;;;;;;;;;;29.85;30.26;96404.25;4965917;28;19950;-48
2023/05/30 00:56:28;;;;;;;;;;;;;;;29.74;30.52;96399.88;4961233;28;19970;-51
2023/05/30 00:58:56;;;;;;;;;;;;;;;29.22;30.90;96411.63;4967526;28;19966;-46
2023/05/30 01:01:24;;;;;;;;;;;;;;;29.24;30.86;96414.88;4955274;28;19972;-53
2023/05/30 01:03:53;;;;;;;;;;;;;;;29.15;31.05;96408.31;4958402;28;19957;-46
2023/05/30 01:06:22;;;;;;;;;;;;;;;29.16;30.77;96407.25;4967020;28;20372;-48
2023/05/30 01:08:52;;;;;;;;;;;;;;;29.46;30.81;96392.97;4956800;28;19922;-45
2023/05/30 01:11:23;;;;;;;;;;;;;;;29.24;30.67;96399.38;4962737;28;19922;-50
2023/05/30 01:13:53;;;;;;;;;;;;;;;28.94;30.97;96404.63;4964722;28;19961;-46
2023/05/30 01:16:23;;;;;;;;;;;;;;;29.23;30.53;96413.25;4960614;28;19972;-51
2023/05/30 01:18:52;;;;;;;;;;;;;;;29.58;30.15;96409.84;4963863;28;19954;-49
2023/05/30 01:21:22;;;;;;;;;;;;;;;29.10;30.84;96409.09;4959518;28;19972;-50
2023/05/30 01:23:53;;;;;;;;;;;;;;;28.67;31.25;96416.44;4965832;28;20613;-47
2023/05/30 01:26:26;;;;;;;;;;;;;;;28.94;30.67;96407.34;4957526;28;19968;-47
2023/05/30 01:28:56;;;;;;;;;;;;;;;29.32;30.63;96406.25;4962315;28;19965;-48
2023/05/30 01:31:24;;;;;;;;;;;;;;;29.41;30.29;96396.47;4963080;28;19973;-52
2023/05/30 01:33:52;;;;;;;;;;;;;;;29.58;30.45;96399.78;4961643;28;19961;-49
2023/05/30 01:36:20;;;;;;;;;;;;;;;29.08;31.37;96409.38;4954271;28;19987;-46
2023/05/30 01:38:48;;;;;;;;;;;;;;;28.44;31.58;96406.75;4966096;28;19953;-48
2023/05/30 01:41:18;;;;;;;;;;;;;;;28.65;31.17;96410.44;4959842;28;19981;-48
2023/05/30 01:43:47;;;;;;;;;;;;;;;28.75;31.37;96409.69;4960325;28;19969;-45
2023/05/30 01:46:20;;;;;;;;;;;;;;;28.02;31.87;96406.66;4961175;28;19965;-48
2023/05/30 01:48:50;;;;;;;;;;;;;;;28.74;31.46;96411.59;4963564;28;19957;-47
2023/05/30 01:51:19;;;;;;;;;;;;;;;28.31;31.63;96415.28;4955486;28;19965;-45
2023/05/30 01:53:48;;;;;;;;;;;;;;;28.29;31.72;96417.47;4963010;28;19961;-54
2023/05/30 01:56:16;;;;;;;;;;;;;;;27.93;31.93;96409.00;4954665;28;19980;-49
2023/05/30 01:58:44;;;;;;;;;;;;;;;28.83;31.19;96411.91;4961405;28;19972;-50
2023/05/30 02:01:12;;;;;;;;;;;;;;;29.14;30.78;96414.81;4962580;28;19926;-49
2023/05/30 02:03:41;;;;;;;;;;;;;;;28.98;30.67;96416.63;4958570;28;19960;-48
2023/05/30 02:06:09;;;;;;;;;;;;;;;28.96;31.01;96418.78;4958777;28;19970;-48
2023/05/30 02:08:37;;;;;;;;;;;;;;;27.98;31.85;96419.06;4969847;28;19953;-52
2023/05/30 02:11:05;;;;;;;;;;;;;;;28.52;31.24;96413.59;4961155;28;19972;-50
2023/05/30 02:13:34;;;;;;;;;;;;;;;28.71;31.13;96412.09;4956632;28;19966;-49
2023/05/30 02:16:02;;;;;;;;;;;;;;;28.52;31.28;96419.81;4956548;28;19958;-46
2023/05/30 02:18:31;;;;;;;;;;;;;;;28.87;30.90;96413.00;4962996;28;19968;-51
2023/05/30 02:21:00;;;;;;;;;;;;;;;28.42;31.05;96414.31;4955370;28;19961;-52
2023/05/30 02:23:28;;;;;;;;;;;;;;;28.51;30.87;96420.09;4959547;28;19965;-52
2023/05/30 02:25:56;;;;;;;;;;;;;;;28.58;30.67;96416.09;4953792;28;20028;-45
2023/05/30 02:28:24;;;;;;;;;;;;;;;28.86;30.60;96412.19;4958659;28;20457;-51
2023/05/30 02:30:52;;;;;;;;;;;;;;;29.06;30.12;96416.16;4959437;28;19969;-46
2023/05/30 02:33:20;;;;;;;;;;;;;;;29.10;30.31;96414.53;4964349;28;19969;-50
2023/05/30 02:35:48;;;;;;;;;;;;;;;28.95;30.29;96411.72;4957380;28;20712;-48
2023/05/30 02:38:18;;;;;;;;;;;;;;;29.23;29.90;96413.25;4959045;28;19926;-48
2023/05/30 02:40:48;;;;;;;;;;;;;;;29.20;29.94;96408.34;4959093;28;19962;-47
2023/05/30 02:43:16;;;;;;;;;;;;;;;29.28;29.59;96410.53;4960852;28;19950;-49
2023/05/30 02:45:48;;;;;;;;;;;;;;;29.45;29.34;96408.44;4962550;28;20383;-47
2023/05/30 02:48:16;;;;;;;;;;;;;;;29.55;29.36;96396.78;4961610;28;19922;-49
2023/05/30 02:50:44;;;;;;;;;;;;;;;29.32;29.85;96404.34;4960032;28;19961;-50
2023/05/30 02:53:12;;;;;;;;;;;;;;;29.49;29.41;96404.13;4961645;28;19980;-52
2023/05/30 02:55:42;;;;;;;;;;;;;;;29.36;29.23;96406.53;4962388;28;19961;-53
2023/05/30 02:58:11;;;;;;;;;;;;;;;29.45;29.71;96404.91;4960633;28;19962;-49
2023/05/30 03:00:39;;;;;;;;;;;;;;;29.09;30.05;96413.72;4956321;28;19965;-50
2023/05/30 03:03:09;;;;;;;;;;;;;;;28.89;30.25;96407.34;4961005;28;19965;-48
2023/05/30 03:05:37;;;;;;;;;;;;;;;29.32;29.59;96406.25;4961336;28;20225;-50
2023/05/30 03:08:05;;;;;;;;;;;;;;;29.61;29.47;96409.34;4963313;28;20406;-48
2023/05/30 03:10:50;;;;;;;;;;;;;;;29.85;29.17;96408.88;4957604;28;19965;-52
2023/05/30 03:13:18;;;;;;;;;;;;;;;29.81;29.58;96411.31;4965353;28;20477;-49
2023/05/30 03:15:46;;;;;;;;;;;;;;;29.87;29.52;96403.97;4968073;28;19965;-48
2023/05/30 03:18:14;;;;;;;;;;;;;;;29.97;29.54;96412.97;4969070;28;19961;-46
2023/05/30 03:20:43;;;;;;;;;;;;;;;29.85;30.14;96420.56;4960610;28;19972;-49
2023/05/30 03:23:11;;;;;;;;;;;;;;;29.48;29.91;96413.34;4957108;28;19957;-46
2023/05/30 03:25:39;;;;;;;;;;;;;;;29.91;29.58;96424.94;4959184;28;19961;-56
2023/05/30 03:28:09;;;;;;;;;;;;;;;29.98;29.95;96409.16;4960512;28;19980;-46
2023/05/30 03:30:37;;;;;;;;;;;;;;;29.95;30.31;96415.16;4960105;28;20654;-49
2023/05/30 03:33:05;;;;;;;;;;;;;;;30.06;29.83;96420.59;4965751;28;20063;-47
2023/05/30 03:35:34;;;;;;;;;;;;;;;30.09;29.49;96423.59;4963619;28;19968;-47
2023/05/30 03:38:03;;;;;;;;;;;;;;;29.87;29.60;96429.28;4966465;28;19965;-51
2023/05/30 03:40:31;;;;;;;;;;;;;;;29.97;29.34;96429.31;4963283;28;19965;-48
2023/05/30 03:42:59;;;;;;;;;;;;;;;30.05;29.23;96427.94;4965837;28;19957;-49
2023/05/30 03:45:28;;;;;;;;;;;;;;;30.02;29.49;96423.03;4971360;28;20897;-52
2023/05/30 03:47:56;;;;;;;;;;;;;;;29.84;29.52;96432.53;4959726;28;19980;-45
2023/05/30 03:50:24;;;;;;;;;;;;;;;30.21;29.39;96423.34;4958343;28;19969;-49
2023/05/30 03:52:52;;;;;;;;;;;;;;;30.27;28.72;96425.81;4960097;28;19969;-47
2023/05/30 03:55:20;;;;;;;;;;;;;;;30.01;30.28;96432.28;4964648;28;20012;-50
2023/05/30 03:57:49;;;;;;;;;;;;;;;29.95;29.66;96423.28;4957872;28;19996;-49
2023/05/30 04:00:17;;;;;;;;;;;;;;;30.04;29.50;96429.00;4958561;28;19956;-47
2023/05/30 04:02:47;;;;;;;;;;;;;;;30.43;29.54;96426.66;4963693;28;19962;-46
2023/05/30 04:05:15;;;;;;;;;;;;;;;30.44;29.11;96430.19;4960385;28;19969;-48
2023/05/30 04:07:43;;;;;;;;;;;;;;;30.24;29.06;96434.50;4964984;28;19957;-51
2023/05/30 04:10:11;;;;;;;;;;;;;;;30.26;29.51;96429.63;4966444;28;19961;-46
2023/05/30 04:12:40;;;;;;;;;;;;;;;30.20;29.95;96435.34;4960334;28;19958;-50
2023/05/30 04:15:08;;;;;;;;;;;;;;;30.06;29.83;96431.47;4957914;28;19972;-49
2023/05/30 04:17:36;;;;;;;;;;;;;;;30.06;30.34;96437.72;4955147;28;20362;-46
2023/05/30 04:20:09;;;;;;;;;;;;;;;29.71;30.63;96439.28;4959636;28;19968;-51
2023/05/30 04:22:37;;;;;;;;;;;;;;;30.20;30.03;96436.16;4954110;28;19957;-47
2023/05/30 04:25:06;;;;;;;;;;;;;;;30.56;29.49;96436.19;4955135;28;19953;-46
2023/05/30 04:27:35;;;;;;;;;;;;;;;29.68;30.33;96441.72;4957827;28;19965;-52
2023/05/30 04:30:04;;;;;;;;;;;;;;;30.10;30.42;96441.53;4959650;28;20050;-53
2023/05/30 04:32:33;;;;;;;;;;;;;;;30.94;29.55;96437.53;4954103;28;19965;-49
2023/05/30 04:35:02;;;;;;;;;;;;;;;31.20;29.17;96435.53;4952500;28;21797;-46
2023/05/30 04:37:33;;;;;;;;;;;;;;;31.75;27.92;96441.06;4950929;28;19969;-45
2023/05/30 04:40:09;;;;;;;;;;;;;;;32.33;27.80;96438.56;4950679;28;19969;-47
2023/05/30 04:42:38;;;;;;;;;;;;;;;33.03;27.12;96442.94;4952711;28;19972;-49
2023/05/30 04:45:07;;;;;;;;;;;;;;;33.83;26.30;96446.94;4952008;28;20009;-49
2023/05/30 04:47:36;;;;;;;;;;;;;;;34.34;25.31;96443.50;4958757;28;20430;-55
2023/05/30 04:50:04;;;;;;;;;;;;;;;35.09;25.19;96445.31;4955217;28;19961;-48
2023/05/30 04:52:34;;;;;;;;;;;;;;;35.03;25.01;96452.00;4956115;28;19966;-50
2023/05/30 04:55:02;;;;;;;;;;;;;;;35.86;24.35;96455.63;4955181;28;19969;-49
2023/05/30 04:57:30;;;;;;;;;;;;;;;35.44;24.96;96446.53;4960347;28;19958;-50
2023/05/30 04:59:58;;;;;;;;;;;;;;;35.53;24.84;96455.72;4957752;28;19969;-49
2023/05/30 05:02:28;;;;;;;;;;;;;;;35.24;24.89;96458.75;4955367;28;19958;-50
2023/05/30 05:04:56;;;;;;;;;;;;;;;35.38;25.00;96453.28;4958502;28;19957;-48
2023/05/30 05:07:24;;;;;;;;;;;;;;;35.38;24.53;96459.56;4956693;28;19954;-51
2023/05/30 05:10:09;;;;;;;;;;;;;;;34.62;25.29;96469.94;4959503;28;19973;-46
2023/05/30 05:12:37;;;;;;;;;;;;;;;35.74;24.94;96466.28;4960675;28;20373;-48
2023/05/30 05:15:06;;;;;;;;;;;;;;;36.08;24.50;96469.41;4951462;28;19969;-48
2023/05/30 05:17:36;;;;;;;;;;;;;;;36.18;24.24;96475.81;4959643;28;19961;-48
2023/05/30 05:20:05;;;;;;;;;;;;;;;36.59;23.95;96471.00;4956676;28;20075;-48
2023/05/30 05:22:36;;;;;;;;;;;;;;;35.90;24.42;96467.59;4956178;28;19965;-53
2023/05/30 05:25:04;;;;;;;;;;;;;;;35.69;24.72;96471.88;4958147;28;20050;-48
2023/05/30 05:27:34;;;;;;;;;;;;;;;35.10;25.12;96468.84;4956602;28;20398;-53
2023/05/30 05:30:02;;;;;;;;;;;;;;;33.98;26.13;96485.06;4959651;28;19972;-49
2023/05/30 05:32:36;;;;;;;;;;;;;;;34.82;25.54;96476.19;4961951;28;19991;-49
2023/05/30 05:35:05;;;;;;;;;;;;;;;34.05;26.06;96480.06;4957906;28;20004;-49
2023/05/30 05:37:33;;;;;;;;;;;;;;;34.79;25.67;96479.50;4960966;28;19961;-52
2023/05/30 05:40:04;;;;;;;;;;;;;;;34.37;26.16;96481.25;4980380;28;19961;-51
2023/05/30 05:42:34;;;;;;;;;;;;;;;35.04;25.37;96483.78;4959668;28;19973;-52
2023/05/30 05:45:02;;;;;;;;;;;;;;;34.70;26.10;96477.47;4955531;28;20402;-46
2023/05/30 05:47:30;;;;;;;;;;;;;;;33.77;26.90;96490.78;4958607;28;19960;-48
2023/05/30 05:49:58;;;;;;;;;;;;;;;34.38;25.94;96485.59;4957342;28;20338;-47
2023/05/30 05:52:26;;;;;;;;;;;;;;;34.13;26.15;96476.66;4956181;28;20413;-52
2023/05/30 05:54:54;;;;;;;;;;;;;;;33.85;26.82;96494.78;4960841;28;20000;-56
2023/05/30 06:00:52;;;;;;;;;;;;;;;31.95;27.94;96496.66;4953381;28;20365;-49
2023/05/30 06:03:20;;;;;;;;;;;;;;;32.64;27.85;96494.88;4952139;28;19966;-51
2023/05/30 06:05:48;;;;;;;;;;;;;;;32.81;27.90;96495.28;4960647;28;19966;-51
2023/05/30 06:08:16;;;;;;;;;;;;;;;31.72;28.55;96503.53;4960525;28;19999;-50
2023/05/30 06:10:44;;;;;;;;;;;;;;;33.25;27.52;96499.84;4959260;28;19957;-50
2023/05/30 06:13:12;;;;;;;;;;;;;;;31.97;28.81;96497.19;4957120;28;19958;-50
2023/05/30 06:15:41;;;;;;;;;;;;;;;30.97;29.22;96504.22;4958848;28;20043;-46
2023/05/30 06:18:10;;;;;;;;;;;;;;;31.68;29.06;96497.84;4967219;28;19953;-54
2023/05/30 06:20:38;;;;;;;;;;;;;;;32.66;28.44;96506.31;4963985;28;20565;-46
2023/05/30 06:23:06;;;;;;;;;;;;;;;33.12;28.15;96504.06;4959957;28;20876;-51
2023/05/30 06:25:35;;;;;;;;;;;;;;;31.66;29.51;96519.13;4959735;28;19969;-50
2023/05/30 06:28:03;;;;;;;;;;;;;;;31.60;29.15;96512.06;4960912;28;19975;-48
2023/05/30 06:30:31;;;;;;;;;;;;;;;32.95;27.93;96514.56;4954285;28;20394;-49
2023/05/30 06:32:59;;;;;;;;;;;;;;;32.16;29.43;96511.81;4964441;28;20433;-53
2023/05/30 06:35:28;;;;;;;;;;;;;;;33.17;28.65;96519.59;4962932;28;20377;-50
2023/05/30 06:37:56;;;;;;;;;;;;;;;32.71;28.87;96525.41;4961127;28;20452;-46
2023/05/30 06:40:25;;;;;;;;;;;;;;;32.51;28.76;96524.47;4959708;28;19961;-51
2023/05/30 06:42:53;;;;;;;;;;;;;;;31.71;29.62;96530.00;4966712;28;19961;-48
2023/05/30 06:45:21;;;;;;;;;;;;;;;32.60;28.15;96530.16;4961537;28;19965;-48
2023/05/30 06:47:49;;;;;;;;;;;;;;;33.48;27.84;96531.91;4963493;28;19969;-49
2023/05/30 06:50:17;;;;;;;;;;;;;;;32.75;28.16;96532.75;4963848;28;20401;-47
2023/05/30 06:52:47;;;;;;;;;;;;;;;32.44;28.23;96525.88;4961772;28;20425;-46
2023/05/30 06:55:15;;;;;;;;;;;;;;;33.03;28.21;96524.91;4960991;28;19969;-49
2023/05/30 06:57:43;;;;;;;;;;;;;;;33.62;28.05;96532.03;4959503;28;19965;-45
2023/05/30 07:00:14;;;;;;;;;;;;;;;32.66;28.50;96539.09;4957339;28;19986;-54
2023/05/30 07:02:42;;;;;;;;;;;;;;;33.04;28.51;96537.47;4959506;28;20377;-49
2023/05/30 07:05:10;;;;;;;;;;;;;;;33.62;27.55;96526.53;4960235;28;20406;-50
2023/05/30 07:07:39;;;;;;;;;;;;;;;32.25;28.68;96536.63;4961683;28;19988;-51
2023/05/30 07:10:12;;;;;;;;;;;;;;;33.83;27.32;96524.38;4962016;28;19968;-51
2023/05/30 07:12:40;;;;;;;;;;;;;;;33.07;28.09;96531.41;4957311;28;19961;-53
2023/05/30 07:15:09;;;;;;;;;;;;;;;33.42;27.32;96526.75;4964594;28;20069;-51
2023/05/30 07:17:37;;;;;;;;;;;;;;;33.88;27.77;96526.25;4956583;28;19958;-46
2023/05/30 07:20:06;;;;;;;;;;;;;;;33.08;27.86;96527.59;4961527;28;19962;-44
2023/05/30 07:22:34;;;;;;;;;;;;;;;33.70;27.20;96530.56;4958734;28;20498;-46
2023/05/30 07:25:03;;;;;;;;;;;;;;;34.81;27.15;96518.41;4959581;28;20533;-50
2023/05/30 07:27:32;;;;;;;;;;;;;;;34.13;27.20;96525.94;4959449;28;20382;-48
2023/05/30 07:30:00;;;;;;;;;;;;;;;33.87;27.28;96524.63;4965492;28;19965;-50
2023/05/30 07:32:28;;;;;;;;;;;;;;;34.02;27.65;96522.50;4965651;28;20003;-49
2023/05/30 07:34:56;;;;;;;;;;;;;;;33.99;27.40;96522.25;4959680;28;19966;-46
2023/05/30 07:37:25;;;;;;;;;;;;;;;34.33;27.91;96524.03;4964842;28;19957;-55
2023/05/30 07:39:53;;;;;;;;;;;;;;;34.61;27.17;96517.59;4964379;28;19957;-49
2023/05/30 07:42:21;;;;;;;;;;;;;;;35.29;26.80;96516.22;4960628;28;19953;-47
2023/05/30 07:44:51;;;;;;;;;;;;;;;34.21;27.01;96524.47;4958266;28;20030;-49
2023/05/30 07:47:19;;;;;;;;;;;;;;;33.85;26.98;96521.34;4957758;28;19980;-52
2023/05/30 07:49:47;;;;;;;;;;;;;;;33.99;27.58;96516.78;4965632;28;19958;-49
2023/05/30 07:52:15;;;;;;;;;;;;;;;35.51;26.10;96515.56;4952895;28;20009;-47
2023/05/30 07:54:43;;;;;;;;;;;;;;;33.73;26.93;96519.84;4961132;28;20661;-45
2023/05/30 07:57:12;;;;;;;;;;;;;;;34.04;27.58;96519.50;4962444;28;20351;-46
2023/05/30 07:59:41;;;;;;;;;;;;;;;33.41;27.97;96519.63;4959265;28;19968;-47
2023/05/30 08:02:10;;;;;;;;;;;;;;;34.99;26.89;96508.50;4959372;28;19988;-51
2023/05/30 08:04:38;;;;;;;;;;;;;;;35.93;25.61;96510.91;4960869;28;20453;-50
2023/05/30 08:07:07;;;;;;;;;;;;;;;34.67;26.81;96513.69;4962139;28;20453;-50
2023/05/30 08:09:36;;;;;;;;;;;;;;;33.75;27.96;96522.28;4962020;28;19950;-48
2023/05/30 08:12:05;;;;;;;;;;;;;;;35.49;26.25;96509.56;4957607;28;19980;-50
2023/05/30 08:14:33;;;;;;;;;;;;;;;34.96;26.98;96515.38;4959709;28;19964;-51
2023/05/30 08:17:01;;;;;;;;;;;;;;;35.50;26.46;96513.09;4961462;28;19966;-53
2023/05/30 08:19:31;;;;;;;;;;;;;;;35.66;25.71;96515.28;4955814;28;20422;-55
2023/05/30 08:21:59;;;;;;;;;;;;;;;35.37;26.71;96506.47;4956918;28;20009;-50
2023/05/30 08:24:28;;;;;;;;;;;;;;;36.60;25.68;96513.03;4960932;28;19969;-50
2023/05/30 08:26:56;;;;;;;;;;;;;;;36.01;25.84;96515.69;4958617;28;19973;-49
2023/05/30 08:29:24;;;;;;;;;;;;;;;33.83;27.28;96521.66;4958832;28;19974;-48
2023/05/30 08:31:52;;;;;;;;;;;;;;;35.54;25.79;96517.69;4956372;28;20407;-46
2023/05/30 08:34:20;;;;;;;;;;;;;;;34.63;27.40;96509.91;4964668;28;20000;-49
2023/05/30 08:36:50;;;;;;;;;;;;;;;35.25;26.27;96503.44;4964326;28;19953;-54
2023/05/30 08:39:18;;;;;;;;;;;;;;;35.66;26.59;96517.22;4958180;28;20334;-55
2023/05/30 08:41:46;;;;;;;;;;;;;;;36.54;25.71;96515.06;4959214;28;20406;-49
2023/05/30 08:44:14;;;;;;;;;;;;;;;35.29;26.54;96516.22;4956982;28;19957;-49
2023/05/30 08:46:43;;;;;;;;;;;;;;;36.46;25.10;96517.72;4955514;28;19965;-46
2023/05/30 08:49:11;;;;;;;;;;;;;;;36.78;25.23;96519.47;4959493;28;19968;-49
2023/05/30 08:51:40;;;;;;;;;;;;;;;36.64;24.90;96521.47;4961943;28;19969;-48
2023/05/30 08:54:10;;;;;;;;;;;;;;;36.77;25.16;96520.59;4955447;28;19958;-46
2023/05/30 08:56:38;;;;;;;;;;;;;;;36.90;25.09;96527.97;4957275;28;20421;-46
2023/05/30 08:59:07;;;;;;;;;;;;;;;35.75;25.58;96518.09;4960451;28;20028;-49
2023/05/30 09:01:35;;;;;;;;;;;;;;;36.79;25.01;96515.63;4954696;28;19969;-52
2023/05/30 09:04:03;;;;;;;;;;;;;;;37.53;24.07;96521.44;4954890;28;19957;-49
2023/05/30 09:06:32;;;;;;;;;;;;;;;36.87;24.64;96523.09;4962076;28;19957;-51
2023/05/30 09:09:00;;;;;;;;;;;;;;;35.99;25.48;96517.88;4952938;28;19972;-48
2023/05/30 09:11:29;;;;;;;;;;;;;;;37.39;24.79;96512.44;4959589;28;19968;-50
2023/05/30 09:13:57;;;;;;;;;;;;;;;37.60;24.50;96518.22;4953750;28;19973;-49
2023/05/30 09:16:25;;;;;;;;;;;;;;;36.24;25.47;96518.50;4955271;28;20938;-51
2023/05/30 09:18:53;;;;;;;;;;;;;;;37.33;24.24;96518.38;4956772;28;19962;-50
2023/05/30 09:21:21;;;;;;;;;;;;;;;36.36;24.44;96527.81;4956472;28;19969;-49
2023/05/30 09:23:49;;;;;;;;;;;;;;;35.36;24.08;96519.38;4963079;28;19970;-50
2023/05/30 09:26:18;;;;;;;;;;;;;;;36.22;24.28;96521.56;4955060;28;20383;-51
2023/05/30 09:28:48;;;;;;;;;;;;;;;37.36;24.98;96513.06;4954564;28;19965;-52
2023/05/30 09:31:16;;;;;;;;;;;;;;;37.11;24.47;96519.25;4952632;28;19923;-49
2023/05/30 09:33:45;;;;;;;;;;;;;;;38.11;23.44;96516.78;4955568;28;20413;-52
2023/05/30 09:36:15;;;;;;;;;;;;;;;37.26;24.55;96525.16;4962871;28;19969;-46
2023/05/30 09:38:54;;;;;;;;;;;;;;;36.42;25.02;96525.78;4954736;28;19949;-51
2023/05/30 09:41:23;;;;;;;;;;;;;;;36.33;25.14;96530.38;4951853;28;20016;-46
2023/05/30 09:43:55;;;;;;;;;;;;;;;36.15;24.32;96528.59;4956473;28;19966;-54
2023/05/30 09:46:24;;;;;;;;;;;;;;;35.57;25.25;96524.50;4956659;28;19965;-49
2023/05/30 09:48:52;;;;;;;;;;;;;;;37.41;23.91;96515.69;4955901;28;19961;-51
2023/05/30 09:51:21;;;;;;;;;;;;;;;38.42;23.33;96527.72;4960530;28;19969;-50
2023/05/30 09:53:56;;;;;;;;;;;;;;;37.71;23.15;96524.25;4950679;28;19965;-47
2023/05/30 09:56:31;;;;;;;;;;;;;;;35.00;25.12;96530.16;4952941;28;19973;-51
2023/05/30 09:59:01;;;;;;;;;;;;;;;35.45;25.25;96526.94;4956236;28;19976;-54
2023/05/30 10:01:35;;;;;;;;;;;;;;;37.99;23.55;96524.84;4956914;28;19961;-49
2023/05/30 10:04:10;;;;;;;;;;;;;;;37.38;24.52;96534.78;4954402;28;19974;-45
2023/05/30 10:06:39;;;;;;;;;;;;;;;36.15;25.34;96532.16;4958257;28;19957;-46
2023/05/30 10:09:08;;;;;;;;;;;;;;;38.15;23.65;96527.97;4951797;28;19961;-47
2023/05/30 10:11:37;;;;;;;;;;;;;;;38.89;23.43;96514.13;4950676;28;19965;-49
2023/05/30 10:14:06;;;;;;;;;;;;;;;37.97;23.51;96527.13;4957086;28;19953;-50
2023/05/30 10:16:35;;;;;;;;;;;;;;;38.25;23.38;96522.16;4954916;28;19961;-53
2023/05/30 10:19:04;;;;;;;;;;;;;;;36.70;23.99;96522.97;4955705;28;19961;-51
2023/05/30 10:21:34;;;;;;;;;;;;;;;37.47;24.49;96516.38;4968308;28;19973;-48
2023/05/30 10:24:02;;;;;;;;;;;;;;;36.80;25.18;96517.22;4960695;28;19930;-53
2023/05/30 10:26:31;;;;;;;;;;;;;;;38.23;24.46;96514.25;4955844;28;20418;-51
2023/05/30 10:28:59;;;;;;;;;;;;;;;37.53;24.33;96518.69;4950610;28;20429;-55
2023/05/30 10:31:28;;;;;;;;;;;;;;;37.41;23.81;96512.94;4958635;28;19960;-46
2023/05/30 10:33:57;;;;;;;;;;;;;;;38.00;23.91;96516.28;4959788;28;19961;-50
2023/05/30 10:36:25;;;;;;;;;;;;;;;38.57;24.43;96520.09;4956683;28;19975;-48
2023/05/30 10:38:55;;;;;;;;;;;;;;;37.85;23.96;96516.69;4950668;28;19954;-48
2023/05/30 10:41:25;;;;;;;;;;;;;;;37.63;24.26;96514.84;4965763;28;19972;-46
2023/05/30 10:43:57;;;;;;;;;;;;;;;36.39;25.13;96523.66;4954062;28;19969;-48
2023/05/30 10:46:26;;;;;;;;;;;;;;;36.49;24.56;96500.66;4954941;28;19973;-46
2023/05/30 10:48:56;;;;;;;;;;;;;;;36.86;24.51;96502.25;4959272;28;19968;-49
2023/05/30 10:51:24;;;;;;;;;;;;;;;36.77;23.69;96498.63;4958964;28;19957;-50
2023/05/30 10:53:52;;;;;;;;;;;;;;;38.03;22.68;96500.25;4957275;28;19950;-49
2023/05/30 10:56:47;;;;;;;;;;;;;;;39.06;21.76;96491.25;4957577;28;20571;-46
2023/05/30 10:59:15;;;;;;;;;;;;;;;37.92;22.67;96502.50;4920257;28;20460;-47
2023/05/30 11:01:47;;;;;;;;;;;;;;;39.49;22.19;96490.31;4961526;28;19976;-46
2023/05/30 11:04:16;;;;;;;;;;;;;;;37.13;22.96;96495.78;4957251;28;19954;-50
2023/05/30 11:06:45;;;;;;;;;;;;;;;38.62;21.29;96500.66;4961251;28;19964;-49
2023/05/30 11:09:14;;;;;;;;;;;;;;;38.75;21.00;96491.41;4959115;28;19973;-50
2023/05/30 11:11:43;;;;;;;;;;;;;;;39.28;21.33;96490.22;4963176;28;20367;-46
2023/05/30 11:14:12;;;;;;;;;;;;;;;38.24;22.31;96491.06;4961591;28;19961;-47
2023/05/30 11:16:50;;;;;;;;;;;;;;;37.73;22.88;96492.53;4960351;28;19969;-49
2023/05/30 11:19:20;;;;;;;;;;;;;;;37.19;22.34;96485.47;4956517;28;20406;-50
2023/05/30 11:21:55;;;;;;;;;;;;;;;36.87;22.14;96483.81;4956331;28;19961;-51
2023/05/30 11:24:23;;;;;;;;;;;;;;;39.23;20.51;96482.09;4958199;28;20441;-46
2023/05/30 11:26:58;;;;;;;;;;;;;;;38.88;21.52;96481.34;4955887;28;19965;-47
2023/05/30 11:29:29;;;;;;;;;;;;;;;39.03;21.89;96480.06;4955122;28;20351;-46
2023/05/30 11:31:57;;;;;;;;;;;;;;;39.93;21.79;96479.09;4960709;28;20329;-46
2023/05/30 11:34:27;;;;;;;;;;;;;;;40.56;21.27;96482.72;4956081;28;19950;-47
2023/05/30 11:36:56;;;;;;;;;;;;;;;41.46;20.46;96475.66;4956791;28;19969;-49
2023/05/30 11:39:24;;;;;;;;;;;;;;;37.94;23.23;96480.97;4960770;28;19994;-47
2023/05/30 11:41:53;;;;;;;;;;;;;;;38.73;22.50;96477.13;4962444;28;20359;-53
2023/05/30 11:44:21;;;;;;;;;;;;;;;38.89;21.19;96483.81;4959507;28;19957;-46
2023/05/30 11:46:59;;;;;;;;;;;;;;;37.77;22.86;96481.69;4956195;28;20363;-47
2023/05/30 11:49:29;;;;;;;;;;;;;;;36.38;23.19;96489.06;4953985;28;19957;-48
2023/05/30 11:51:57;;;;;;;;;;;;;;;37.52;22.51;96473.03;4956053;28;19957;-46
2023/05/30 11:54:25;;;;;;;;;;;;;;;39.26;20.92;96461.34;4961892;28;19953;-46
2023/05/30 11:56:54;;;;;;;;;;;;;;;36.64;23.37;96474.75;4961673;28;19987;-49
2023/05/30 11:59:23;;;;;;;;;;;;;;;37.51;22.89;96479.69;4957451;28;19973;-48
2023/05/30 12:01:52;;;;;;;;;;;;;;;37.24;23.28;96474.34;4956670;28;19966;-46
2023/05/30 12:04:23;;;;;;;;;;;;;;;37.44;23.14;96473.00;4952607;28;20395;-47
2023/05/30 12:06:53;;;;;;;;;;;;;;;36.29;22.62;96467.00;4958230;28;19973;-47
2023/05/30 12:09:21;;;;;;;;;;;;;;;36.18;22.50;96465.63;4953941;28;19991;-49
2023/05/30 12:11:52;;;;;;;;;;;;;;;36.31;22.87;96466.72;4961554;28;19970;-51
2023/05/30 12:14:21;;;;;;;;;;;;;;;37.02;22.75;96469.69;4960970;28;19958;-55
2023/05/30 12:16:54;;;;;;;;;;;;;;;37.94;21.81;96467.19;4959330;28;20467;-51
2023/05/30 12:19:22;;;;;;;;;;;;;;;38.39;21.88;96469.69;4961685;28;20955;-47
2023/05/30 12:21:52;;;;;;;;;;;;;;;37.25;22.45;96463.03;4963998;28;19957;-46
2023/05/30 12:24:22;;;;;;;;;;;;;;;36.99;22.82;96465.63;4954530;28;20379;-49
2023/05/30 12:26:50;;;;;;;;;;;;;;;37.72;22.37;96459.84;4957529;28;19961;-47
2023/05/30 12:29:18;;;;;;;;;;;;;;;39.23;21.85;96462.78;4959922;28;19969;-48
2023/05/30 12:31:47;;;;;;;;;;;;;;;40.15;21.18;96466.94;4954284;28;20367;-45
2023/05/30 12:34:15;;;;;;;;;;;;;;;39.21;21.17;96456.78;4954483;28;19969;-50
2023/05/30 12:36:43;;;;;;;;;;;;;;;39.30;22.03;96471.41;4962267;28;19965;-53
2023/05/30 12:39:12;;;;;;;;;;;;;;;37.61;22.94;96470.31;4960780;28;20377;-50
2023/05/30 12:41:41;;;;;;;;;;;;;;;36.92;23.12;96475.41;4965263;28;19961;-49
2023/05/30 12:44:09;;;;;;;;;;;;;;;36.83;23.23;96480.88;4958439;28;19966;-49
2023/05/30 12:46:38;;;;;;;;;;;;;;;36.93;23.37;96483.38;4959656;28;20537;-46
2023/05/30 12:49:07;;;;;;;;;;;;;;;38.09;22.56;96480.50;4952630;28;20000;-48
2023/05/30 12:51:36;;;;;;;;;;;;;;;37.60;22.83;96476.94;4955297;28;19961;-51
2023/05/30 12:54:06;;;;;;;;;;;;;;;37.32;22.61;96473.56;4956280;28;20000;-46
2023/05/30 12:56:35;;;;;;;;;;;;;;;36.91;22.98;96477.38;4959687;28;19984;-52
2023/05/30 12:59:03;;;;;;;;;;;;;;;37.66;22.78;96478.44;4951345;28;19965;-49
2023/05/30 13:01:31;;;;;;;;;;;;;;;37.52;22.15;96486.00;4951480;28;19965;-50